createdAt,value
2018-06-14T00:02:28.315Z,80.21
2018-06-14T00:05:01.418Z,80.05
2018-06-14T00:07:34.362Z,79.67
2018-06-14T00:10:07.274Z,78.05
2018-06-14T00:12:40.680Z,76.69
2018-06-14T00:15:13.056Z,75.94
2018-06-14T00:17:47.533Z,75.13
2018-06-14T00:20:20.845Z,75.09
2018-06-14T00:22:55.549Z,75.00
2018-06-14T00:25:27.566Z,76.71
2018-06-14T00:28:00.091Z,77.66
2018-06-14T00:30:33.182Z,78.00
2018-06-14T00:33:07.833Z,78.41
2018-06-14T00:35:40.924Z,79.27
2018-06-14T00:38:12.525Z,79.26
2018-06-14T00:40:45.736Z,79.12
2018-06-14T00:43:20.596Z,79.34
2018-06-14T00:45:53.851Z,78.64
2018-06-14T00:48:28.051Z,77.96
2018-06-14T00:51:01.533Z,77.73
2018-06-14T00:53:36.173Z,77.91
2018-06-14T00:56:09.007Z,77.55
2018-06-14T00:58:42.296Z,77.92
2018-06-14T01:01:12.479Z,77.57
2018-06-14T01:03:45.553Z,78.05
2018-06-14T01:06:18.548Z,78.50
2018-06-14T01:08:50.032Z,78.51
2018-06-14T01:11:24.604Z,78.49
2018-06-14T01:13:59.123Z,78.59
2018-06-14T01:16:32.213Z,78.18
2018-06-14T01:19:03.775Z,77.90
2018-06-14T01:21:36.969Z,78.29
2018-06-14T01:24:11.705Z,77.94
2018-06-14T01:26:46.196Z,78.15
2018-06-14T01:29:19.258Z,77.87
2018-06-14T01:31:53.777Z,77.39
2018-06-14T01:34:28.550Z,78.09
2018-06-14T01:37:02.640Z,77.81
2018-06-14T01:39:34.847Z,77.81
2018-06-14T01:42:06.966Z,77.57
2018-06-14T01:44:41.917Z,77.12
2018-06-14T01:47:16.403Z,76.91
2018-06-14T01:49:50.519Z,77.13
2018-06-14T01:52:21.943Z,77.03
2018-06-14T01:54:54.862Z,76.73
2018-06-14T01:57:26.498Z,77.38
2018-06-14T01:59:59.596Z,77.74
2018-06-14T02:02:32.653Z,77.88
2018-06-14T02:05:03.604Z,77.58
2018-06-14T02:07:35.182Z,77.17
2018-06-14T02:10:04.482Z,76.92
2018-06-14T02:12:38.249Z,77.25
2018-06-14T02:15:11.719Z,77.42
2018-06-14T02:17:43.543Z,78.15
2018-06-14T02:20:15.293Z,78.13
2018-06-14T02:22:48.498Z,78.14
2018-06-14T02:25:21.735Z,78.49
2018-06-14T02:27:55.041Z,78.19
2018-06-14T02:30:27.983Z,77.99
2018-06-14T02:32:59.538Z,77.88
2018-06-14T02:35:32.866Z,77.78
2018-06-14T02:38:05.871Z,78.18
2018-06-14T02:40:39.279Z,78.43
2018-06-14T02:43:11.468Z,77.57
2018-06-14T02:45:42.938Z,78.04
2018-06-14T02:48:18.018Z,79.16
2018-06-14T02:50:48.057Z,79.33
2018-06-14T02:53:19.366Z,79.24
2018-06-14T02:55:51.976Z,79.41
2018-06-14T02:58:23.302Z,79.57
2018-06-14T03:00:53.947Z,79.33
2018-06-14T03:03:24.839Z,79.05
2018-06-14T03:05:57.895Z,79.32
2018-06-14T03:08:31.171Z,79.46
2018-06-14T03:11:05.894Z,79.77
2018-06-14T03:13:37.904Z,79.75
2018-06-14T03:16:11.049Z,79.30
2018-06-14T03:18:44.288Z,79.22
2018-06-14T03:21:16.302Z,79.45
2018-06-14T03:23:47.861Z,79.60
2018-06-14T03:26:21.221Z,78.97
2018-06-14T03:28:53.533Z,79.25
2018-06-14T03:31:26.952Z,79.78
2018-06-14T03:34:00.049Z,80.31
2018-06-14T03:36:33.322Z,80.01
2018-06-14T03:39:06.480Z,79.59
2018-06-14T03:41:41.486Z,79.49
2018-06-14T03:44:13.295Z,79.11
2018-06-14T03:46:46.530Z,78.30
2018-06-14T03:49:21.239Z,79.10
2018-06-14T03:51:53.139Z,78.83
2018-06-14T03:54:24.604Z,78.50
2018-06-14T03:56:57.696Z,78.84
2018-06-14T03:59:27.742Z,78.76
2018-06-14T04:01:59.291Z,78.38
2018-06-14T04:04:34.862Z,78.35
2018-06-14T04:07:09.780Z,77.64
2018-06-14T04:09:43.108Z,76.97
2018-06-14T04:12:12.876Z,77.39
2018-06-14T04:14:44.325Z,76.63
2018-06-14T04:17:16.157Z,76.49
2018-06-14T04:19:49.094Z,75.87
2018-06-14T04:22:22.503Z,75.35
2018-06-14T04:24:55.780Z,75.84
2018-06-14T04:27:25.760Z,75.91
2018-06-14T04:29:58.655Z,75.27
2018-06-14T04:32:28.568Z,75.63
2018-06-14T04:35:00.081Z,75.40
2018-06-14T04:37:33.073Z,73.30
2018-06-14T04:40:04.596Z,71.38
2018-06-14T04:42:39.457Z,68.84
2018-06-14T04:45:12.100Z,70.78
2018-06-14T04:47:43.835Z,72.95
2018-06-14T04:50:15.535Z,72.69
2018-06-14T04:52:46.488Z,69.69
2018-06-14T04:55:19.736Z,68.79
2018-06-14T04:57:51.235Z,70.29
2018-06-14T05:00:24.088Z,71.62
2018-06-14T05:02:57.059Z,71.42
2018-06-14T05:05:28.522Z,71.75
2018-06-14T05:07:59.858Z,67.57
2018-06-14T05:10:31.828Z,63.38
2018-06-14T05:13:04.768Z,62.45
2018-06-14T05:15:37.402Z,62.37
2018-06-14T05:18:07.421Z,62.84
2018-06-14T05:20:37.313Z,63.31
2018-06-14T05:23:11.488Z,61.74
2018-06-14T05:25:44.595Z,62.47
2018-06-14T05:28:18.959Z,63.68
2018-06-14T05:30:50.607Z,65.42
2018-06-14T05:33:22.030Z,60.58
2018-06-14T05:35:53.501Z,63.78
2018-06-14T05:38:26.562Z,65.74
2018-06-14T05:41:01.164Z,67.25
2018-06-14T05:43:34.282Z,68.11
2018-06-14T05:46:07.289Z,68.37
2018-06-14T05:48:38.684Z,67.77
2018-06-14T05:51:11.800Z,67.28
2018-06-14T05:53:43.236Z,65.11
2018-06-14T05:56:17.727Z,64.51
2018-06-14T05:58:50.968Z,65.57
2018-06-14T06:01:23.980Z,65.81
2018-06-14T06:03:58.332Z,65.15
2018-06-14T06:06:28.409Z,65.19
2018-06-14T06:08:59.905Z,67.40
2018-06-14T06:11:31.604Z,68.73
2018-06-14T06:14:04.168Z,65.87
2018-06-14T06:16:37.646Z,59.72
2018-06-14T06:19:12.107Z,58.68
2018-06-14T06:21:46.437Z,58.13
2018-06-14T06:24:17.913Z,55.81
2018-06-14T06:26:50.993Z,55.69
2018-06-14T06:29:23.995Z,55.39
2018-06-14T06:31:53.403Z,55.69
2018-06-14T06:34:25.124Z,54.48
2018-06-14T06:36:57.263Z,54.46
2018-06-14T06:39:28.729Z,51.85
2018-06-14T06:42:01.702Z,51.75
2018-06-14T06:44:33.149Z,50.94
2018-06-14T06:47:04.599Z,51.75
2018-06-14T06:49:38.920Z,50.76
2018-06-14T06:52:10.302Z,48.93
2018-06-14T06:54:42.413Z,48.61
2018-06-14T06:57:15.904Z,49.28
2018-06-14T06:59:48.793Z,48.82
2018-06-14T07:02:20.274Z,47.27
2018-06-14T07:04:53.039Z,45.22
2018-06-14T07:07:23.375Z,49.45
2018-06-14T07:09:56.475Z,44.32
2018-06-14T07:12:30.036Z,48.31
2018-06-14T07:15:02.049Z,49.55
2018-06-14T07:17:36.795Z,43.85
2018-06-14T07:20:08.349Z,45.76
2018-06-14T07:22:38.249Z,44.45
2018-06-14T07:25:11.693Z,44.47
2018-06-14T07:27:46.056Z,44.15
2018-06-14T07:30:19.015Z,42.79
2018-06-14T07:32:53.435Z,42.90
2018-06-14T07:35:26.580Z,41.61
2018-06-14T07:37:56.559Z,40.42
2018-06-14T07:40:28.535Z,37.78
2018-06-14T07:43:02.179Z,38.77
2018-06-14T07:45:35.387Z,38.23
2018-06-14T07:48:06.940Z,39.94
2018-06-14T07:50:39.805Z,39.66
2018-06-14T07:53:09.775Z,39.05
2018-06-14T07:55:42.934Z,39.35
2018-06-14T07:58:16.011Z,38.12
2018-06-14T08:00:46.022Z,38.24
2018-06-14T08:03:17.676Z,39.33
2018-06-14T08:05:50.826Z,39.08
2018-06-14T08:08:25.286Z,40.21
2018-06-14T08:10:58.143Z,39.41
2018-06-14T08:13:31.402Z,38.64
2018-06-14T08:16:04.355Z,41.37
2018-06-14T08:18:37.441Z,38.74
2018-06-14T08:21:07.299Z,38.94
2018-06-14T08:23:38.679Z,39.34
2018-06-14T08:26:10.106Z,40.28
2018-06-14T08:28:43.140Z,40.40
2018-06-14T08:31:13.087Z,40.69
2018-06-14T08:34:06.117Z,41.43
2018-06-14T08:36:37.071Z,42.67
2018-06-14T08:39:13.195Z,44.94
2018-06-14T08:41:46.135Z,43.16
2018-06-14T08:44:17.730Z,43.07
2018-06-14T08:46:48.008Z,43.03
2018-06-14T08:49:21.086Z,44.33
2018-06-14T08:51:53.162Z,43.69
2018-06-14T08:54:26.261Z,44.32
2018-06-14T08:57:00.639Z,44.12
2018-06-14T08:59:33.694Z,42.95
2018-06-14T09:02:08.074Z,44.77
2018-06-14T09:04:41.346Z,45.63
2018-06-14T09:07:12.741Z,44.21
2018-06-14T09:09:47.844Z,43.28
2018-06-14T09:12:22.188Z,44.41
2018-06-14T09:14:53.734Z,44.77
2018-06-14T09:17:24.420Z,42.67
2018-06-14T09:19:57.451Z,43.00
2018-06-14T09:22:32.763Z,41.62
2018-06-14T09:25:04.239Z,44.22
2018-06-14T09:27:35.389Z,42.92
2018-06-14T09:30:08.358Z,42.91
2018-06-14T09:32:41.385Z,42.71
2018-06-14T09:35:12.924Z,40.87
2018-06-14T09:37:46.337Z,43.57
2018-06-14T09:40:17.856Z,41.93
2018-06-14T09:42:50.801Z,41.68
2018-06-14T09:45:23.927Z,41.91
2018-06-14T09:47:55.950Z,41.04
2018-06-14T09:50:27.518Z,41.77
2018-06-14T09:52:59.470Z,41.80
2018-06-14T09:55:33.902Z,42.84
2018-06-14T09:58:08.496Z,43.40
2018-06-14T10:00:41.212Z,42.75
2018-06-14T10:03:14.502Z,43.37
2018-06-14T10:05:43.860Z,43.87
2018-06-14T10:08:15.500Z,43.28
2018-06-14T10:10:46.901Z,44.34
2018-06-14T10:13:18.452Z,41.75
2018-06-14T10:15:49.937Z,43.88
2018-06-14T10:18:23.333Z,44.58
2018-06-14T10:20:56.506Z,44.17
2018-06-14T10:23:30.940Z,44.07
2018-06-14T10:26:04.769Z,42.66
2018-06-14T10:28:39.249Z,43.82
2018-06-14T10:31:10.863Z,43.98
2018-06-14T10:33:45.335Z,42.53
2018-06-14T10:36:19.687Z,42.75
2018-06-14T10:38:51.750Z,41.61
2018-06-14T10:41:23.170Z,41.13
2018-06-14T10:43:54.712Z,41.29
2018-06-14T10:46:26.742Z,42.31
2018-06-14T10:48:59.770Z,41.57
2018-06-14T10:51:31.325Z,41.50
2018-06-14T10:54:02.745Z,42.88
2018-06-14T10:56:35.675Z,44.86
2018-06-14T10:59:07.240Z,42.51
2018-06-14T11:01:40.379Z,43.51
2018-06-14T11:04:13.984Z,43.20
2018-06-14T11:06:46.864Z,43.16
2018-06-14T11:09:16.732Z,45.75
2018-06-14T11:11:51.304Z,44.40
2018-06-14T11:14:24.286Z,43.51
2018-06-14T11:16:56.403Z,44.77
2018-06-14T11:19:27.822Z,45.78
2018-06-14T11:22:02.826Z,46.58
2018-06-14T11:24:32.801Z,44.63
2018-06-14T11:27:04.700Z,45.27
2018-06-14T11:29:36.556Z,45.01
2018-06-14T11:32:12.398Z,45.77
2018-06-14T11:34:46.681Z,45.10
2018-06-14T11:37:21.025Z,46.32
2018-06-14T11:39:53.168Z,48.02
2018-06-14T11:42:24.741Z,46.41
2018-06-14T11:44:59.319Z,45.45
2018-06-14T11:47:30.726Z,46.34
2018-06-14T11:50:02.708Z,48.30
2018-06-14T11:52:35.932Z,47.48
2018-06-14T11:55:07.669Z,50.62
2018-06-14T11:57:40.709Z,47.23
2018-06-14T12:00:12.609Z,48.92
2018-06-14T12:02:44.044Z,50.88
2018-06-14T12:05:15.476Z,50.76
2018-06-14T12:07:50.037Z,51.50
2018-06-14T12:10:23.294Z,53.96
2018-06-14T12:12:53.204Z,54.02
2018-06-14T12:15:26.237Z,54.84
2018-06-14T12:17:56.229Z,57.70
2018-06-14T12:20:28.629Z,56.55
2018-06-14T12:23:00.063Z,55.71
2018-06-14T12:25:31.554Z,55.46
2018-06-14T12:28:03.472Z,58.26
2018-06-14T12:30:35.049Z,55.93
2018-06-14T12:33:06.457Z,57.27
2018-06-14T12:35:38.298Z,56.30
2018-06-14T12:38:10.230Z,55.64
2018-06-14T12:40:43.150Z,58.17
2018-06-14T12:43:14.704Z,57.74
2018-06-14T12:45:47.966Z,58.51
2018-06-14T12:48:19.674Z,58.15
2018-06-14T12:50:54.238Z,57.26
2018-06-14T12:53:27.369Z,58.35
2018-06-14T12:56:00.390Z,59.22
2018-06-14T12:58:31.808Z,59.71
2018-06-14T13:01:04.895Z,57.16
2018-06-14T13:03:36.581Z,58.95
2018-06-14T13:06:11.265Z,60.35
2018-06-14T13:08:45.644Z,60.66
2018-06-14T13:11:18.621Z,60.51
2018-06-14T13:13:50.334Z,59.71
2018-06-14T13:16:21.904Z,59.52
2018-06-14T13:18:54.799Z,59.82
2018-06-14T13:21:26.798Z,60.85
2018-06-14T13:23:58.301Z,59.22
2018-06-14T13:26:29.756Z,59.25
2018-06-14T13:29:00.984Z,57.93
2018-06-14T13:31:34.082Z,56.37
2018-06-14T13:34:04.100Z,54.94
2018-06-14T13:36:34.030Z,55.58
2018-06-14T13:39:08.702Z,55.12
2018-06-14T13:41:41.708Z,56.79
2018-06-14T13:44:13.302Z,55.69
2018-06-14T13:46:46.375Z,55.44
2018-06-14T13:49:17.441Z,54.36
2018-06-14T13:51:50.273Z,56.36
2018-06-14T13:54:21.853Z,54.73
2018-06-14T13:56:54.783Z,56.26
2018-06-14T13:59:26.116Z,56.51
2018-06-14T14:01:57.778Z,55.32
2018-06-14T14:04:29.986Z,54.17
2018-06-14T14:07:09.046Z,54.28
2018-06-14T14:09:40.579Z,54.90
2018-06-14T14:12:13.910Z,54.78
2018-06-14T14:14:46.997Z,54.07
2018-06-14T14:17:18.383Z,55.23
2018-06-14T14:19:51.479Z,53.18
2018-06-14T14:22:25.547Z,52.55
2018-06-14T14:24:58.435Z,51.32
2018-06-14T14:27:31.360Z,53.72
2018-06-14T14:30:03.751Z,54.26
2018-06-14T14:32:35.218Z,52.88
2018-06-14T14:35:08.773Z,53.43
2018-06-14T14:37:41.804Z,51.97
2018-06-14T14:40:14.947Z,51.78
2018-06-14T14:42:47.907Z,54.20
2018-06-14T14:45:19.549Z,53.33
2018-06-14T14:47:52.023Z,54.38
2018-06-14T14:50:25.050Z,54.11
2018-06-14T14:52:59.250Z,53.95
2018-06-14T14:55:30.810Z,54.62
2018-06-14T14:57:59.883Z,54.61
2018-06-14T15:00:33.497Z,54.35
2018-06-14T15:03:06.463Z,56.34
2018-06-14T15:05:38.100Z,56.24
2018-06-14T15:08:10.714Z,57.55
2018-06-14T15:10:45.120Z,57.84
2018-06-14T15:13:18.093Z,57.42
2018-06-14T15:15:49.575Z,57.70
2018-06-14T15:18:21.413Z,57.58
2018-06-14T15:20:54.884Z,57.87
2018-06-14T15:23:26.442Z,57.58
2018-06-14T15:25:56.387Z,57.29
2018-06-14T15:28:29.487Z,55.87
2018-06-14T15:31:03.075Z,55.92
2018-06-14T15:33:36.103Z,55.81
2018-06-14T15:36:07.642Z,56.28
2018-06-14T15:38:40.581Z,57.24
2018-06-14T15:41:12.529Z,57.74
2018-06-14T15:43:43.917Z,59.55
2018-06-14T15:46:16.902Z,59.90
2018-06-14T15:48:48.592Z,60.63
2018-06-14T15:51:22.052Z,61.57
2018-06-14T15:53:51.890Z,62.63
2018-06-14T15:56:39.812Z,61.59
2018-06-14T15:59:12.662Z,61.48
2018-06-14T16:01:47.260Z,61.69
2018-06-14T16:04:20.385Z,62.18
2018-06-14T16:06:51.025Z,61.48
2018-06-14T16:09:24.145Z,63.04
2018-06-14T16:11:57.213Z,63.32
2018-06-14T16:14:30.134Z,62.97
2018-06-14T16:17:01.504Z,63.69
2018-06-14T16:19:31.543Z,64.31
2018-06-14T16:22:04.489Z,65.41
2018-06-14T16:24:39.244Z,65.28
2018-06-14T16:27:13.857Z,64.95
2018-06-14T16:29:48.301Z,65.61
2018-06-14T16:32:21.193Z,66.92
2018-06-14T16:34:55.624Z,71.15
2018-06-14T16:37:27.175Z,72.83
2018-06-14T16:39:58.617Z,75.64
2018-06-14T16:42:31.704Z,77.97
2018-06-14T16:45:05.576Z,78.08
2018-06-14T16:47:37.188Z,78.72
2018-06-14T16:50:07.267Z,79.74
2018-06-14T16:52:40.540Z,80.07
2018-06-14T16:55:13.561Z,79.48
2018-06-14T16:57:46.517Z,79.40
2018-06-14T17:00:19.688Z,79.07
2018-06-14T17:02:52.546Z,79.32
2018-06-14T17:05:24.702Z,79.10
2018-06-14T17:07:56.460Z,78.76
2018-06-14T17:10:29.567Z,78.94
2018-06-14T17:13:01.190Z,77.86
2018-06-14T17:15:33.996Z,77.48
2018-06-14T17:18:07.079Z,77.40
2018-06-14T17:20:42.386Z,77.36
2018-06-14T17:23:17.099Z,78.05
2018-06-14T17:25:50.439Z,78.94
2018-06-14T17:28:23.541Z,79.41
2018-06-14T17:30:57.380Z,79.94
2018-06-14T17:33:29.009Z,79.44
2018-06-14T17:36:01.181Z,79.38
2018-06-14T17:38:32.891Z,78.23
2018-06-14T17:41:04.510Z,77.92
2018-06-14T17:43:37.808Z,78.11
2018-06-14T17:46:09.386Z,77.77
2018-06-14T17:48:41.327Z,78.58
2018-06-14T17:51:14.381Z,78.31
2018-06-14T17:53:47.598Z,80.14
2018-06-14T17:56:18.992Z,80.49
2018-06-14T17:58:53.760Z,80.62
2018-06-14T18:01:26.956Z,81.08
2018-06-14T18:03:58.666Z,81.91
2018-06-14T18:06:33.204Z,82.81
2018-06-14T18:09:06.161Z,83.07
2018-06-14T18:11:39.033Z,83.74
2018-06-14T18:14:12.276Z,83.80
2018-06-14T18:16:45.355Z,83.24
2018-06-14T18:19:16.963Z,83.75
2018-06-14T18:21:52.012Z,83.95
2018-06-14T18:24:26.733Z,83.64
2018-06-14T18:26:58.517Z,83.18
2018-06-14T18:29:33.235Z,83.17
2018-06-14T18:32:06.447Z,82.66
2018-06-14T18:34:38.109Z,83.28
2018-06-14T18:37:12.943Z,82.32
2018-06-14T18:39:42.935Z,82.27
2018-06-14T18:42:17.664Z,82.19
2018-06-14T18:44:49.732Z,81.93
2018-06-14T18:47:19.661Z,81.75
2018-06-14T18:49:49.793Z,82.18
2018-06-14T18:52:22.057Z,81.87
2018-06-14T18:54:51.979Z,81.52
2018-06-14T18:57:25.294Z,82.04
2018-06-14T18:59:57.296Z,82.01
2018-06-14T19:02:30.754Z,81.86
2018-06-14T19:05:03.714Z,81.56
2018-06-14T19:07:35.171Z,81.65
2018-06-14T19:10:08.393Z,81.63
2018-06-14T19:12:41.701Z,81.38
2018-06-14T19:15:13.085Z,81.27
2018-06-14T19:17:44.634Z,81.92
2018-06-14T19:20:16.237Z,81.42
2018-06-14T19:22:47.696Z,82.17
2018-06-14T19:25:19.228Z,82.51
2018-06-14T19:27:52.735Z,83.17
2018-06-14T19:30:23.313Z,82.04
2018-06-14T19:32:56.583Z,82.09
2018-06-14T19:35:30.199Z,81.56
2018-06-14T19:38:01.676Z,81.51
2018-06-14T19:40:31.787Z,81.70
2018-06-14T19:43:05.294Z,81.88
2018-06-14T19:45:36.742Z,82.52
2018-06-14T19:48:07.425Z,81.24
2018-06-14T19:50:42.066Z,81.82
2018-06-14T19:53:13.661Z,81.06
2018-06-14T19:55:46.643Z,81.78
2018-06-14T19:58:19.730Z,81.76
2018-06-14T20:00:51.252Z,81.30
2018-06-14T20:03:24.592Z,82.23
2018-06-14T20:05:56.139Z,81.69
2018-06-14T20:08:30.836Z,81.70
2018-06-14T20:11:03.776Z,80.91
2018-06-14T20:13:38.558Z,81.58
2018-06-14T20:16:13.273Z,81.73
2018-06-14T20:18:46.390Z,81.35
2018-06-14T20:21:19.464Z,80.92
2018-06-14T20:23:54.089Z,81.87
2018-06-14T20:26:27.387Z,81.23
2018-06-14T20:29:02.093Z,81.14
2018-06-14T20:31:32.582Z,81.77
2018-06-14T20:34:06.485Z,82.23
2018-06-14T20:36:36.492Z,81.72
2018-06-14T20:39:15.662Z,81.44
2018-06-14T20:41:47.216Z,81.26
2018-06-14T20:44:17.296Z,81.68
2018-06-14T20:46:49.783Z,81.56
2018-06-14T20:49:21.758Z,81.90
2018-06-14T20:51:51.692Z,81.46
2018-06-14T20:54:24.604Z,82.11
2018-06-14T20:56:59.204Z,83.31
2018-06-14T20:59:29.185Z,84.24
2018-06-14T21:02:00.743Z,84.64
2018-06-14T21:04:32.262Z,84.64
2018-06-14T21:07:06.994Z,84.13
2018-06-14T21:09:41.575Z,84.83
2018-06-14T21:12:13.493Z,86.14
2018-06-14T21:14:48.363Z,85.98
2018-06-14T21:17:22.392Z,85.73
2018-06-14T21:19:52.629Z,85.52
2018-06-14T21:22:24.245Z,85.03
2018-06-14T21:24:58.266Z,84.46
2018-06-14T21:27:29.750Z,83.99
2018-06-14T21:30:04.636Z,83.63
2018-06-14T21:32:36.971Z,83.54
2018-06-14T21:35:10.327Z,82.71
2018-06-14T21:37:43.438Z,82.35
2018-06-14T21:40:18.397Z,82.41
2018-06-14T21:42:51.572Z,82.21
2018-06-14T21:45:26.117Z,82.04
2018-06-14T21:47:59.174Z,82.14
2018-06-14T21:50:34.166Z,82.70
2018-06-14T21:53:05.776Z,83.10
2018-06-14T21:55:35.792Z,82.79
2018-06-14T21:58:07.814Z,82.62
2018-06-14T22:00:41.039Z,82.79
2018-06-14T22:03:31.630Z,82.83
2018-06-14T22:06:04.534Z,82.15
2018-06-14T22:08:34.621Z,82.19
2018-06-14T22:11:06.815Z,82.93
2018-06-14T22:13:38.481Z,82.77
2018-06-14T22:16:11.778Z,82.70
2018-06-14T22:18:43.403Z,82.42
2018-06-14T22:21:18.029Z,82.66
2018-06-14T22:23:50.458Z,82.22
2018-06-14T22:26:22.151Z,82.55
2018-06-14T22:28:55.777Z,82.18
2018-06-14T22:31:27.826Z,82.18
2018-06-14T22:34:35.214Z,82.46
2018-06-14T22:37:08.530Z,82.24
2018-06-14T22:39:43.040Z,82.37
2018-06-14T22:42:17.646Z,82.59
2018-06-14T22:44:49.423Z,82.70
2018-06-14T22:47:20.891Z,82.99
2018-06-14T22:49:50.978Z,82.87
2018-06-14T22:52:59.043Z,82.87
2018-06-14T22:55:33.733Z,83.04
2018-06-14T22:58:06.495Z,82.74
2018-06-14T23:01:22.612Z,82.69
2018-06-14T23:03:55.977Z,82.59
2018-06-14T23:06:27.550Z,82.40
2018-06-14T23:09:01.652Z,82.67
2018-06-14T23:11:36.033Z,82.50
2018-06-14T23:14:09.426Z,82.51
2018-06-14T23:16:41.025Z,82.55
2018-06-14T23:19:12.587Z,82.82
2018-06-14T23:21:45.039Z,82.66
2018-06-14T23:24:18.064Z,82.53
2018-06-14T23:26:49.483Z,82.31
2018-06-14T23:29:21.068Z,81.95
2018-06-14T23:31:54.101Z,81.88
2018-06-14T23:34:25.552Z,82.01
2018-06-14T23:37:00.625Z,82.07
2018-06-14T23:39:35.360Z,82.18
2018-06-14T23:42:09.074Z,82.21
2018-06-14T23:44:43.662Z,82.73
2018-06-14T23:47:15.081Z,82.53
2018-06-14T23:49:48.455Z,82.51
2018-06-14T23:52:18.465Z,82.30
2018-06-14T23:54:52.923Z,82.50
2018-06-14T23:57:26.010Z,82.79
